Time;durP1;ratioP1;P1;durP2;ratioP2;P2;SDS_P1;SDS_P2;PMS_P1;PMS_P2;Temp;Humidity;BMP_temperature;BMP_pressure;BME280_temperature;BME280_humidity;BME280_pressure;Samples;Min_cycle;Max_cycle;Signal;HPM_P1;HPM_P2
2024/01/21 00:01:54;;;;;;;10.68;6.47;;;;;;;-1.52;74.54;102356.81;5022917;28;20026;-63
2024/01/21 00:04:20;;;;;;;9.32;6.13;;;;;;;-1.53;74.12;102352.50;5022690;28;20496;-63
2024/01/21 00:06:45;;;;;;;8.77;6.00;;;;;;;-1.56;74.01;102351.66;5024849;28;20080;-63
2024/01/21 00:09:10;;;;;;;10.35;6.22;;;;;;;-1.58;73.72;102346.44;5022305;28;20392;-63
2024/01/21 00:11:36;;;;;;;11.02;6.28;;;;;;;-1.61;74.70;102343.84;5021059;28;20033;-62
2024/01/21 00:14:01;;;;;;;8.90;6.10;;;;;;;-1.63;75.20;102337.75;5023322;28;20029;-63
2024/01/21 00:16:26;;;;;;;9.80;5.53;;;;;;;-1.65;75.04;102331.66;5022405;28;20057;-63
2024/01/21 00:18:51;;;;;;;10.82;5.57;;;;;;;-1.66;74.34;102326.50;5019610;28;20390;-63
2024/01/21 00:21:17;;;;;;;7.47;5.68;;;;;;;-1.69;74.36;102327.34;5021330;28;20034;-62
2024/01/21 00:23:44;;;;;;;7.78;5.50;;;;;;;-1.71;73.97;102322.13;5019764;28;20045;-63
2024/01/21 00:26:10;;;;;;;8.63;5.70;;;;;;;-1.76;74.45;102321.28;5022012;28;20410;-63
2024/01/21 00:28:35;;;;;;;7.93;5.88;;;;;;;-1.78;74.43;102317.81;5020958;28;20045;-63
2024/01/21 00:31:03;;;;;;;7.45;5.13;;;;;;;-1.81;74.71;102310.00;5024010;28;20487;-63
2024/01/21 00:33:28;;;;;;;8.90;6.20;;;;;;;-1.81;74.45;102310.00;5020496;28;20037;-63
2024/01/21 00:35:53;;;;;;;7.95;5.53;;;;;;;-1.82;73.93;102303.03;5021671;28;20396;-63
2024/01/21 00:38:19;;;;;;;8.32;5.63;;;;;;;-1.86;74.32;102298.72;5017493;28;20026;-63
2024/01/21 00:40:44;;;;;;;8.10;5.03;;;;;;;-1.88;74.64;102293.53;5020596;28;20026;-63
2024/01/21 00:43:09;;;;;;;7.75;5.22;;;;;;;-1.89;74.68;102294.38;5021506;28;20471;-63
2024/01/21 00:45:34;;;;;;;9.50;6.10;;;;;;;-1.90;74.77;102296.97;5020260;28;20084;-63
2024/01/21 00:48:00;;;;;;;7.95;5.20;;;;;;;-1.92;74.38;102296.13;5020458;28;20053;-63
2024/01/21 00:50:26;;;;;;;10.32;5.65;;;;;;;-1.92;74.15;102306.53;5020910;28;20021;-63
2024/01/21 00:52:51;;;;;;;10.23;5.55;;;;;;;-1.94;74.25;102300.47;5019147;28;20052;-63
2024/01/21 00:55:18;;;;;;;6.75;5.10;;;;;;;-1.95;73.61;102304.81;5019237;28;20026;-63
2024/01/21 00:57:44;;;;;;;8.05;5.45;;;;;;;-1.97;74.04;102305.69;5019018;28;20041;-62
2024/01/21 01:00:10;;;;;;;5.78;4.85;;;;;;;-1.98;73.97;102299.63;5021814;28;20022;-63
2024/01/21 01:02:35;;;;;;;8.25;5.15;;;;;;;-1.96;74.00;102291.81;5017260;28;20060;-63
2024/01/21 01:05:00;;;;;;;8.35;5.55;;;;;;;-1.97;74.21;102277.03;5022374;28;20028;-63
2024/01/21 01:07:25;;;;;;;6.30;5.10;;;;;;;-1.99;74.48;102273.56;5016903;28;20426;-63
2024/01/21 01:09:51;;;;;;;7.72;5.13;;;;;;;-1.99;74.84;102270.97;5022482;28;20029;-63
2024/01/21 01:12:16;;;;;;;9.75;5.53;;;;;;;-1.99;74.79;102264.03;5017802;28;20133;-63
2024/01/21 01:14:41;;;;;;;6.82;5.20;;;;;;;-2.02;74.56;102253.59;5020686;28;20036;-63
2024/01/21 01:17:07;;;;;;;8.95;6.30;;;;;;;-2.03;75.19;102251.88;5022138;28;20423;-63
2024/01/21 01:19:32;;;;;;;10.80;6.43;;;;;;;-2.05;75.37;102254.50;5022924;28;20647;-63
2024/01/21 01:21:57;;;;;;;10.32;6.63;;;;;;;-2.05;75.09;102244.09;5022558;28;20030;-63
2024/01/21 01:24:23;;;;;;;10.82;6.68;;;;;;;-2.08;75.39;102233.66;5019154;28;20529;-63
2024/01/21 01:26:48;;;;;;;11.70;7.03;;;;;;;-2.11;75.67;102230.22;5019717;28;20112;-63
2024/01/21 01:29:13;;;;;;;9.57;6.85;;;;;;;-2.13;76.00;102227.59;5021324;28;20032;-63
2024/01/21 01:31:39;;;;;;;11.02;7.15;;;;;;;-2.15;75.52;102216.34;5020296;28;20153;-63
2024/01/21 01:34:04;;;;;;;13.73;7.38;;;;;;;-2.18;76.18;102218.03;5016647;28;20030;-62
2024/01/21 01:36:29;;;;;;;11.68;7.10;;;;;;;-2.18;76.22;102210.25;5021566;28;20040;-63
2024/01/21 01:38:54;;;;;;;10.07;6.57;;;;;;;-2.18;75.79;102208.53;5023874;28;20045;-63
2024/01/21 01:41:20;;;;;;;18.63;10.98;;;;;;;-2.19;76.01;102200.72;5020868;28;20021;-62
2024/01/21 01:43:45;;;;;;;11.85;7.60;;;;;;;-2.21;75.81;102187.72;5015106;28;20045;-63
2024/01/21 01:46:10;;;;;;;11.48;7.75;;;;;;;-2.21;75.87;102187.72;5019294;28;20392;-63
2024/01/21 01:48:36;;;;;;;9.93;6.53;;;;;;;-2.21;75.55;102184.22;5014549;28;20045;-63
2024/01/21 01:51:03;;;;;;;8.20;6.40;;;;;;;-2.19;75.68;102179.91;5016477;28;20113;-63
2024/01/21 01:53:29;;;;;;;12.95;7.20;;;;;;;-2.19;75.21;102166.88;5019791;28;20042;-62
2024/01/21 01:55:55;;;;;;;9.77;6.85;;;;;;;-2.18;75.08;102171.19;5020559;28;20040;-63
2024/01/21 01:58:23;;;;;;;8.98;6.28;;;;;;;-2.15;75.13;102174.69;5014281;28;20026;-62
2024/01/21 02:00:49;;;;;;;8.02;5.75;;;;;;;-2.14;74.97;102172.94;5022889;28;20112;-62
2024/01/21 02:03:15;;;;;;;9.00;5.90;;;;;;;-2.10;74.65;102161.63;5023054;28;20511;-62
2024/01/21 02:05:40;;;;;;;8.10;5.85;;;;;;;-2.10;74.83;102165.13;5018200;28;20037;-62
2024/01/21 02:08:05;;;;;;;8.35;5.85;;;;;;;-2.08;74.84;102146.91;5019943;28;20029;-62
2024/01/21 02:10:31;;;;;;;9.23;5.93;;;;;;;-2.06;74.50;102142.56;5018342;28;20029;-62
2024/01/21 02:12:57;;;;;;;7.15;6.18;;;;;;;-2.07;74.11;102138.19;5022714;28;20033;-62
2024/01/21 02:15:22;;;;;;;7.85;6.00;;;;;;;-2.06;74.13;102134.75;5016652;28;20072;-63
2024/01/21 02:17:48;;;;;;;7.65;5.35;;;;;;;-2.05;73.74;102129.53;5020777;28;20469;-62
2024/01/21 02:20:13;;;;;;;7.72;5.55;;;;;;;-2.05;73.71;102129.53;5017955;28;20057;-62
2024/01/21 02:22:40;;;;;;;7.15;5.15;;;;;;;-2.04;73.46;102127.78;5021746;28;20026;-62
2024/01/21 02:25:06;;;;;;;9.27;5.70;;;;;;;-2.03;73.18;102118.22;5017777;28;20083;-62
2024/01/21 02:27:31;;;;;;;7.68;5.00;;;;;;;-1.96;72.54;102117.34;5022313;28;20092;-62
2024/01/21 02:29:56;;;;;;;6.43;4.60;;;;;;;-1.89;72.17;102108.63;5017331;28;20033;-62
2024/01/21 02:32:22;;;;;;;7.18;4.80;;;;;;;-1.87;72.40;102110.34;5019851;28;20025;-62
2024/01/21 02:34:47;;;;;;;7.18;4.60;;;;;;;-1.83;71.91;102106.00;5020583;28;20128;-62
2024/01/21 02:37:12;;;;;;;5.63;4.70;;;;;;;-1.79;71.55;102096.44;5018194;28;20039;-62
2024/01/21 02:39:37;;;;;;;7.88;4.47;;;;;;;-1.77;71.93;102090.34;5020264;28;20030;-62
2024/01/21 02:42:03;;;;;;;5.07;4.10;;;;;;;-1.74;71.30;102087.72;5020077;28;20104;-62
2024/01/21 02:44:28;;;;;;;6.28;4.55;;;;;;;-1.69;71.10;102083.34;5019279;28;20031;-62
2024/01/21 02:46:53;;;;;;;7.30;4.75;;;;;;;-1.61;70.86;102079.84;5017234;28;20036;-62
2024/01/21 02:49:21;;;;;;;6.72;4.88;;;;;;;-1.57;69.94;102087.63;5017943;28;20026;-62
2024/01/21 02:51:46;;;;;;;6.32;4.35;;;;;;;-1.55;70.21;102096.31;5019495;28;20036;-63
2024/01/21 02:54:11;;;;;;;6.40;4.70;;;;;;;-1.53;70.39;102089.34;5020122;28;20471;-62
2024/01/21 02:56:36;;;;;;;6.60;4.55;;;;;;;-1.51;70.39;102090.19;5020240;28;20034;-62
2024/01/21 02:59:02;;;;;;;6.07;4.20;;;;;;;-1.50;69.78;102091.94;5016826;28;20025;-62
2024/01/21 03:01:27;;;;;;;7.28;4.97;;;;;;;-1.50;70.24;102091.03;5020254;28;20029;-62
2024/01/21 03:03:52;;;;;;;5.70;4.28;;;;;;;-1.46;70.19;102092.78;5019888;28;20034;-62
2024/01/21 03:06:18;;;;;;;6.70;4.70;;;;;;;-1.46;70.02;102091.91;5019078;28;20022;-62
2024/01/21 03:08:43;;;;;;;6.63;4.72;;;;;;;-1.50;70.59;102076.31;5021921;28;20356;-62
2024/01/21 03:11:08;;;;;;;7.07;5.00;;;;;;;-1.49;70.59;102064.13;5019968;28;20041;-62
2024/01/21 03:13:34;;;;;;;10.13;4.97;;;;;;;-1.49;70.42;102056.31;5025638;28;20579;-62
2024/01/21 03:16:00;;;;;;;6.43;4.35;;;;;;;-1.51;70.97;102045.03;5026541;28;20037;-62
2024/01/21 03:18:25;;;;;;;7.13;4.90;;;;;;;-1.53;70.76;102059.81;5024872;28;20523;-62
2024/01/21 03:20:51;;;;;;;8.55;4.78;;;;;;;-1.53;70.70;102060.69;5028341;28;20109;-62
2024/01/21 03:23:16;;;;;;;8.70;4.95;;;;;;;-1.53;71.59;102058.06;5025546;28;20537;-62
2024/01/21 03:25:41;;;;;;;6.45;4.32;;;;;;;-1.53;71.14;102049.41;5026219;28;20022;-62
2024/01/21 03:28:07;;;;;;;6.07;4.78;;;;;;;-1.54;71.63;102055.47;5026820;28;20427;-62
2024/01/21 03:30:32;;;;;;;6.13;4.60;;;;;;;-1.54;71.85;102058.09;5025055;28;20033;-62
2024/01/21 03:32:57;;;;;;;7.22;4.65;;;;;;;-1.55;71.81;102045.91;5025538;28;20407;-62
2024/01/21 03:35:22;;;;;;;5.10;4.30;;;;;;;-1.56;71.97;102050.28;5026673;28;20030;-62
2024/01/21 03:37:48;;;;;;;5.72;4.53;;;;;;;-1.54;71.94;102050.28;5022210;28;20034;-62
2024/01/21 03:40:14;;;;;;;7.13;4.38;;;;;;;-1.56;72.23;102042.47;5026177;28;20699;-62
2024/01/21 03:42:39;;;;;;;6.10;4.40;;;;;;;-1.55;71.78;102038.09;5021872;28;20045;-62
2024/01/21 03:45:05;;;;;;;5.65;4.50;;;;;;;-1.53;72.17;102033.78;5025699;28;20036;-62
2024/01/21 03:47:31;;;;;;;5.75;4.32;;;;;;;-1.52;72.18;102032.88;5024030;28;20025;-62
2024/01/21 03:49:56;;;;;;;6.05;4.40;;;;;;;-1.50;72.36;102033.72;5020673;28;20029;-62
2024/01/21 03:52:21;;;;;;;6.40;4.35;;;;;;;-1.47;72.42;102031.09;5026649;28;20403;-64
2024/01/21 03:54:47;;;;;;;5.95;4.25;;;;;;;-1.42;72.32;102028.47;5027075;28;20025;-62
2024/01/21 03:57:12;;;;;;;5.72;4.25;;;;;;;-1.39;72.72;102018.88;5025069;28;20076;-62
2024/01/21 03:59:39;;;;;;;7.22;4.50;;;;;;;-1.34;72.54;102009.28;5026085;28;20378;-62
2024/01/21 04:02:05;;;;;;;6.72;4.38;;;;;;;-1.27;72.42;102006.63;5027830;28;20569;-62
2024/01/21 04:04:30;;;;;;;5.70;4.25;;;;;;;-1.22;72.40;101997.03;5025842;28;20113;-62
2024/01/21 04:06:56;;;;;;;5.10;3.95;;;;;;;-1.18;71.94;101991.78;5024624;28;20070;-62
2024/01/21 04:09:23;;;;;;;5.93;4.55;;;;;;;-1.10;71.79;101981.25;5024774;28;20371;-63
2024/01/21 04:11:49;;;;;;;5.75;4.30;;;;;;;-1.10;72.04;101983.84;5023945;28;20115;-62
2024/01/21 04:14:15;;;;;;;6.63;4.50;;;;;;;-1.08;71.95;101984.72;5022736;28;20076;-62
2024/01/21 04:16:40;;;;;;;6.63;4.60;;;;;;;-1.02;71.72;101986.41;5026948;28;20568;-62
2024/01/21 04:19:05;;;;;;;6.05;4.63;;;;;;;-1.00;72.10;101993.34;5029374;28;20033;-62
2024/01/21 04:21:32;;;;;;;6.53;4.80;;;;;;;-0.95;72.01;102008.91;5021563;28;20033;-62
2024/01/21 04:23:58;;;;;;;6.05;4.63;;;;;;;-0.91;72.25;102002.81;5023187;28;20037;-62
2024/01/21 04:26:23;;;;;;;7.93;5.00;;;;;;;-0.86;71.92;102010.59;5020845;28;20025;-62
2024/01/21 04:28:48;;;;;;;6.60;4.72;;;;;;;-0.84;72.08;101999.25;5025767;28;20411;-62
2024/01/21 04:31:14;;;;;;;6.82;4.82;;;;;;;-0.78;72.17;101985.31;5011048;28;20036;-62
2024/01/21 04:33:39;;;;;;;6.75;5.03;;;;;;;-0.71;71.98;101984.34;5024698;28;20029;-62
2024/01/21 04:36:05;;;;;;;7.35;4.97;;;;;;;-0.65;71.64;101978.19;5022303;28;20468;-62
2024/01/21 04:38:30;;;;;;;7.13;4.85;;;;;;;-0.60;71.79;101960.72;5022407;28;20102;-62
2024/01/21 04:40:55;;;;;;;8.18;5.43;;;;;;;-0.52;71.28;101943.22;5018771;28;20420;-62
2024/01/21 04:43:21;;;;;;;8.45;5.50;;;;;;;-0.47;70.51;101922.28;5020275;28;20081;-62
2024/01/21 04:45:46;;;;;;;8.85;5.10;;;;;;;-0.42;71.33;101918.75;5021140;28;20034;-62
2024/01/21 04:48:11;;;;;;;8.55;5.40;;;;;;;-0.38;70.51;101919.56;5021953;28;20029;-62
2024/01/21 04:50:37;;;;;;;8.05;5.40;;;;;;;-0.42;71.53;101912.66;5020319;28;20069;-62
2024/01/21 04:53:02;;;;;;;7.75;5.45;;;;;;;-0.40;71.45;101916.97;5022133;28;20050;-62
2024/01/21 04:55:28;;;;;;;7.72;5.28;;;;;;;-0.38;71.24;101893.47;5018789;28;20044;-62
2024/01/21 04:57:53;;;;;;;7.45;5.25;;;;;;;-0.33;69.85;101896.00;5016979;28;20391;-62
2024/01/21 05:00:19;;;;;;;8.63;5.57;;;;;;;-0.33;71.37;101896.00;5021353;28;20391;-62
2024/01/21 05:02:44;;;;;;;9.13;6.00;;;;;;;-0.32;70.60;101885.53;5022700;28;20056;-62
2024/01/21 05:05:09;;;;;;;8.48;6.00;;;;;;;-0.27;70.50;101886.31;5016213;28;20018;-62
2024/01/21 05:07:35;;;;;;;8.25;5.65;;;;;;;-0.25;70.24;101896.75;5023533;28;20030;-62
2024/01/21 05:10:00;;;;;;;10.27;6.38;;;;;;;-0.25;70.65;101897.63;5017618;28;20307;-62
2024/01/21 05:12:25;;;;;;;9.60;5.80;;;;;;;-0.23;70.44;101901.06;5018541;28;20076;-62
2024/01/21 05:14:51;;;;;;;10.52;5.90;;;;;;;-0.19;69.94;101891.44;5020001;28;20360;-62
2024/01/21 05:17:16;;;;;;;7.72;5.70;;;;;;;-0.17;70.16;101901.88;5024232;28;20545;-62
2024/01/21 05:19:41;;;;;;;9.80;6.32;;;;;;;-0.16;70.98;101908.81;5017928;28;20025;-62
2024/01/21 05:22:06;;;;;;;8.90;6.32;;;;;;;-0.17;71.02;101917.53;5020505;28;20154;-62
2024/01/21 05:24:35;;;;;;;9.70;6.30;;;;;;;-0.16;70.75;101909.69;5020218;28;20431;-62
2024/01/21 05:27:00;;;;;;;9.97;6.03;;;;;;;-0.13;70.94;101893.09;5019864;28;20506;-62
2024/01/21 05:29:25;;;;;;;9.15;5.95;;;;;;;-0.10;71.11;101887.81;5022458;28;20030;-62
2024/01/21 05:31:50;;;;;;;8.32;5.90;;;;;;;-0.08;70.87;101881.69;5023414;28;20157;-62
2024/01/21 05:34:16;;;;;;;10.27;6.10;;;;;;;-0.02;70.31;101891.19;5021401;28;20032;-62
2024/01/21 05:36:42;;;;;;;10.30;6.53;;;;;;;-0.02;70.44;101886.84;5019357;28;20395;-62
2024/01/21 05:39:07;;;;;;;7.82;5.57;;;;;;;0.02;70.35;101905.94;5019500;28;20156;-62
2024/01/21 05:41:33;;;;;;;9.93;5.90;;;;;;;0.07;70.06;101904.09;5022575;28;20112;-62
2024/01/21 05:43:58;;;;;;;9.07;6.20;;;;;;;0.09;70.27;101896.25;5016910;28;20386;-62
2024/01/21 05:46:24;;;;;;;10.25;6.40;;;;;;;0.08;70.81;101897.13;5022644;28;20087;-62
2024/01/21 05:48:49;;;;;;;8.88;6.40;;;;;;;0.11;70.11;101902.31;5018741;28;20033;-62
2024/01/21 05:51:14;;;;;;;8.38;5.97;;;;;;;0.12;70.03;101885.75;5018991;28;20030;-62
2024/01/21 05:53:41;;;;;;;8.40;5.78;;;;;;;0.15;70.25;101888.28;5016338;28;20124;-62
2024/01/21 05:56:07;;;;;;;9.73;6.30;;;;;;;0.15;70.41;101888.28;5015907;28;20026;-62
2024/01/21 05:58:32;;;;;;;11.40;6.35;;;;;;;0.15;70.22;101886.56;5016075;28;20084;-62
2024/01/21 06:00:57;;;;;;;8.68;5.97;;;;;;;0.15;70.36;101883.94;5021275;28;20383;-62
2024/01/21 06:03:22;;;;;;;8.65;6.18;;;;;;;0.16;70.70;101890.03;5019597;28;20036;-62
2024/01/21 06:05:48;;;;;;;9.73;7.00;;;;;;;0.16;70.21;101880.44;5020509;28;20475;-62
2024/01/21 06:08:13;;;;;;;9.35;6.07;;;;;;;0.17;69.89;101869.09;5021153;28;20018;-62
2024/01/21 06:10:38;;;;;;;9.63;6.25;;;;;;;0.21;69.52;101866.44;5014986;28;20034;-62
2024/01/21 06:13:03;;;;;;;8.85;6.47;;;;;;;0.22;69.20;101874.25;5021785;28;20507;-62
2024/01/21 06:15:29;;;;;;;11.18;6.53;;;;;;;0.18;70.08;101870.84;5022850;28;20045;-62
2024/01/21 06:17:54;;;;;;;8.20;5.95;;;;;;;0.21;70.05;101884.72;5017800;28;20037;-62
2024/01/21 06:20:19;;;;;;;9.45;6.40;;;;;;;0.18;70.47;101886.53;5019665;28;20029;-62
2024/01/21 06:22:45;;;;;;;8.57;6.13;;;;;;;0.21;69.40;101892.56;5016351;28;20410;-62
2024/01/21 06:25:11;;;;;;;8.98;6.70;;;;;;;0.21;70.08;101901.25;5021621;28;20026;-62
2024/01/21 06:27:37;;;;;;;8.77;6.47;;;;;;;0.24;70.20;101895.13;5020163;28;20102;-62
2024/01/21 06:30:16;;;;;;;8.15;5.88;;;;;;;0.25;70.59;101881.16;5017479;28;20554;-62
2024/01/21 06:32:41;;;;;;;9.80;6.55;;;;;;;0.27;69.96;101888.09;5010863;28;20033;-62
2024/01/21 06:35:07;;;;;;;7.50;5.93;;;;;;;0.27;70.36;101906.41;5018894;28;20395;-62
2024/01/21 06:37:32;;;;;;;8.45;6.32;;;;;;;0.32;69.04;101901.94;5016997;28;20038;-62
2024/01/21 06:39:57;;;;;;;8.88;6.18;;;;;;;0.34;68.61;101908.00;5020474;28;20022;-62
2024/01/21 06:42:23;;;;;;;8.48;6.55;;;;;;;0.34;69.55;101894.09;5020534;28;20383;-62
2024/01/21 06:44:48;;;;;;;9.40;6.35;;;;;;;0.38;69.51;101892.28;5017560;28;20029;-62
2024/01/21 06:47:13;;;;;;;9.82;6.25;;;;;;;0.40;68.82;101899.22;5015946;28;20022;-62
2024/01/21 06:49:38;;;;;;;10.02;6.28;;;;;;;0.44;68.26;101894.81;5018710;28;20048;-62
2024/01/21 06:52:07;;;;;;;8.25;5.93;;;;;;;0.43;67.64;101900.91;5016038;28;20062;-62
2024/01/21 06:54:33;;;;;;;8.70;5.87;;;;;;;0.45;67.83;101912.19;5018008;28;20561;-62
2024/01/21 06:56:58;;;;;;;8.55;6.28;;;;;;;0.44;68.30;101913.09;5017171;28;20021;-62
2024/01/21 06:59:23;;;;;;;8.50;6.25;;;;;;;0.45;67.98;101907.84;5019364;28;20025;-62
2024/01/21 07:01:48;;;;;;;9.48;6.43;;;;;;;0.48;67.63;101889.50;5015572;28;20498;-63
2024/01/21 07:04:14;;;;;;;8.55;6.05;;;;;;;0.52;66.51;101890.31;5021611;28;20038;-62
2024/01/21 07:06:41;;;;;;;8.38;6.18;;;;;;;0.54;66.87;101878.06;5019866;28;20491;-62
2024/01/21 07:09:06;;;;;;;8.38;5.72;;;;;;;0.62;65.32;101865.72;5019921;28;20041;-63
2024/01/21 07:11:35;;;;;;;8.60;5.90;;;;;;;0.62;66.15;101855.25;5008442;28;20026;-62
2024/01/21 07:14:01;;;;;;;7.65;5.55;;;;;;;0.67;66.01;101849.94;5017034;28;20040;-61
2024/01/21 07:16:26;;;;;;;8.27;6.13;;;;;;;0.70;65.42;101862.94;5019005;28;20030;-62
2024/01/21 07:18:51;;;;;;;9.65;5.97;;;;;;;0.73;65.52;101844.56;5015816;28;20032;-61
2024/01/21 07:21:17;;;;;;;8.05;5.95;;;;;;;0.80;65.06;101847.94;5017245;28;20063;-62
2024/01/21 07:23:42;;;;;;;7.88;5.82;;;;;;;0.77;64.64;101858.44;5011265;28;20100;-62
2024/01/21 07:26:08;;;;;;;7.90;5.32;;;;;;;0.75;64.53;101853.28;5011749;28;20091;-62
2024/01/21 07:28:33;;;;;;;7.63;5.78;;;;;;;0.69;64.49;101841.16;5016884;28;20080;-62
2024/01/21 07:30:58;;;;;;;8.63;6.15;;;;;;;0.65;65.38;101846.47;5016483;28;20484;-62
2024/01/21 07:33:23;;;;;;;7.28;6.03;;;;;;;0.61;65.29;101831.75;5013212;28;20033;-62
2024/01/21 07:35:50;;;;;;;10.13;6.05;;;;;;;0.56;64.70;101839.66;5011827;28;20550;-62
2024/01/21 07:38:17;;;;;;;8.88;5.63;;;;;;;0.53;64.74;101843.22;5014108;28;20438;-62
2024/01/21 07:40:42;;;;;;;8.75;6.07;;;;;;;0.52;64.64;101841.50;5013247;28;20049;-62
2024/01/21 07:43:10;;;;;;;7.78;6.07;;;;;;;0.49;64.69;101838.91;5016005;28;20411;-62
2024/01/21 07:45:36;;;;;;;10.02;6.05;;;;;;;0.47;65.30;101856.41;5017510;28;20386;-62
2024/01/21 07:48:01;;;;;;;8.55;5.78;;;;;;;0.46;65.45;101848.56;5017668;28;20034;-62
2024/01/21 07:50:26;;;;;;;7.95;5.72;;;;;;;0.45;65.24;101868.63;5015874;28;20049;-62
2024/01/21 07:52:52;;;;;;;9.32;5.90;;;;;;;0.44;65.35;101866.03;5017707;28;20116;-62
2024/01/21 07:55:17;;;;;;;8.02;6.30;;;;;;;0.42;64.91;101886.97;5013942;28;20101;-62
2024/01/21 07:57:43;;;;;;;7.63;6.03;;;;;;;0.43;65.04;101891.31;5017680;28;20039;-62
2024/01/21 08:00:08;;;;;;;8.45;5.43;;;;;;;0.44;65.04;101892.19;5021799;28;20065;-62
2024/01/21 08:02:34;;;;;;;8.00;5.82;;;;;;;0.43;65.40;101885.22;5016263;28;20141;-62
2024/01/21 08:05:00;;;;;;;8.13;5.80;;;;;;;0.39;65.87;101912.31;5019727;28;20037;-62
2024/01/21 08:07:26;;;;;;;8.20;5.65;;;;;;;0.39;65.61;101938.44;5020487;28;20079;-62
2024/01/21 08:09:52;;;;;;;9.48;5.70;;;;;;;0.40;65.35;101945.38;5016776;28;20037;-62
2024/01/21 08:12:17;;;;;;;6.53;5.00;;;;;;;0.40;65.87;101938.44;5019827;28;20060;-62
2024/01/21 08:14:43;;;;;;;9.85;6.00;;;;;;;0.40;66.57;101945.38;5019103;28;20056;-62
2024/01/21 08:17:08;;;;;;;6.95;5.20;;;;;;;0.45;65.47;101941.81;5020991;28;20029;-62
2024/01/21 08:19:37;;;;;;;7.82;5.50;;;;;;;0.46;66.32;101951.38;5017797;28;20038;-62
2024/01/21 08:22:02;;;;;;;6.15;4.80;;;;;;;0.50;66.07;101953.06;5015603;28;20089;-62
2024/01/21 08:24:28;;;;;;;9.05;5.65;;;;;;;0.54;66.28;101953.88;5020006;28;20064;-62
2024/01/21 08:26:53;;;;;;;7.55;5.60;;;;;;;0.56;66.39;101957.31;5022053;28;20037;-62
2024/01/21 08:29:18;;;;;;;7.78;5.70;;;;;;;0.59;66.98;101959.88;5016871;28;20026;-62
2024/01/21 08:31:44;;;;;;;8.30;5.57;;;;;;;0.60;66.91;101947.66;5023775;28;20083;-62
2024/01/21 08:34:10;;;;;;;8.85;5.93;;;;;;;0.65;67.10;101945.81;5016286;28;20037;-62
2024/01/21 08:36:35;;;;;;;9.43;5.55;;;;;;;0.69;67.13;101934.44;5019577;28;20053;-62
2024/01/21 08:39:00;;;;;;;8.18;5.88;;;;;;;0.72;66.85;101926.53;5019531;28;20046;-62
2024/01/21 08:41:26;;;;;;;8.52;5.50;;;;;;;0.76;67.21;101929.97;5016853;28;20038;-62
2024/01/21 08:43:51;;;;;;;7.63;5.75;;;;;;;0.78;67.32;101913.34;5018154;28;20038;-62
2024/01/21 08:46:16;;;;;;;8.57;5.47;;;;;;;0.83;67.72;101910.63;5018689;28;20490;-61
2024/01/21 08:48:44;;;;;;;7.78;5.55;;;;;;;0.85;67.41;101921.94;5024698;28;20060;-62
2024/01/21 08:51:09;;;;;;;8.80;5.78;;;;;;;0.87;68.95;101913.19;5020493;28;20033;-62
2024/01/21 08:53:34;;;;;;;7.95;5.28;;;;;;;0.93;69.63;101933.09;5016842;28;20058;-62
2024/01/21 08:55:59;;;;;;;8.35;5.85;;;;;;;0.97;69.55;101954.88;5019178;28;20065;-62
2024/01/21 08:58:25;;;;;;;7.30;5.40;;;;;;;0.98;71.09;101951.34;5015854;28;20054;-62
2024/01/21 09:00:50;;;;;;;8.25;5.53;;;;;;;1.00;71.78;101939.97;5021128;28;20040;-62
2024/01/21 09:03:15;;;;;;;7.68;5.30;;;;;;;1.03;72.69;101954.72;5015003;28;20068;-62
2024/01/21 09:05:41;;;;;;;7.57;5.70;;;;;;;1.03;73.66;101949.50;5025290;28;20034;-62
2024/01/21 09:08:07;;;;;;;9.00;5.60;;;;;;;1.04;74.90;101935.53;5015581;28;20033;-62
2024/01/21 09:10:32;;;;;;;9.30;5.78;;;;;;;1.04;74.86;101954.69;5019706;28;20026;-62
2024/01/21 09:12:57;;;;;;;9.68;5.68;;;;;;;1.07;76.02;101952.03;5019170;28;20029;-62
2024/01/21 09:15:23;;;;;;;8.57;6.07;;;;;;;1.09;76.59;101936.31;5017339;28;20511;-62
2024/01/21 09:17:49;;;;;;;7.75;5.72;;;;;;;1.09;77.69;101936.31;5024306;28;20033;-62
2024/01/21 09:20:14;;;;;;;7.25;5.32;;;;;;;1.12;78.26;101957.19;5012658;28;20061;-62
2024/01/21 09:22:39;;;;;;;7.97;6.05;;;;;;;1.11;79.51;101956.31;5018804;28;20035;-62
2024/01/21 09:25:04;;;;;;;7.95;5.55;;;;;;;1.15;79.90;101966.72;5021761;28;20145;-62
2024/01/21 09:27:30;;;;;;;8.07;5.78;;;;;;;1.18;80.33;101969.28;5020137;28;20079;-62
2024/01/21 09:29:55;;;;;;;8.85;5.88;;;;;;;1.18;81.30;101977.97;5021367;28;20040;-62
2024/01/21 09:32:20;;;;;;;7.65;6.00;;;;;;;1.19;81.56;101969.25;5018182;28;20474;-62
2024/01/21 09:34:45;;;;;;;7.28;5.70;;;;;;;1.22;82.02;101974.44;5014177;28;20030;-62
2024/01/21 09:37:11;;;;;;;7.65;5.78;;;;;;;1.21;83.08;101977.94;5011373;28;20025;-62
2024/01/21 09:39:37;;;;;;;8.18;5.80;;;;;;;1.22;84.98;101984.91;5018845;28;20487;-62
2024/01/21 09:42:05;;;;;;;9.38;6.10;;;;;;;1.21;85.28;101987.53;5016272;28;20022;-62
2024/01/21 09:44:31;;;;;;;8.43;5.70;;;;;;;1.24;86.15;101997.94;5020470;28;20033;-62
2024/01/21 09:47:01;;;;;;;8.45;5.53;;;;;;;1.24;86.84;101982.25;5019243;28;20033;-62
2024/01/21 09:49:27;;;;;;;9.07;6.07;;;;;;;1.24;87.78;101985.72;5018301;28;20346;-62
2024/01/21 09:51:54;;;;;;;7.82;6.43;;;;;;;1.25;88.72;101984.84;5016378;28;20021;-63
2024/01/21 09:54:21;;;;;;;7.97;5.95;;;;;;;1.26;89.46;101986.53;5015463;28;20021;-62
2024/01/21 09:56:46;;;;;;;8.63;5.63;;;;;;;1.28;89.97;101973.44;5016630;28;20034;-62
2024/01/21 09:59:12;;;;;;;8.23;5.88;;;;;;;1.27;90.67;101975.19;5023656;28;20048;-62
2024/01/21 10:01:41;;;;;;;9.20;6.18;;;;;;;1.30;92.05;101976.91;5018558;28;20033;-62
2024/01/21 10:04:12;;;;;;;10.77;6.50;;;;;;;1.31;91.81;101972.53;5020842;28;20168;-62
2024/01/21 10:06:37;;;;;;;9.85;6.53;;;;;;;1.33;92.48;101975.97;5014123;28;20471;-62
2024/01/21 10:09:17;;;;;;;9.25;5.88;;;;;;;1.33;93.29;101973.34;5019371;28;20156;-62
2024/01/21 10:11:48;;;;;;;10.82;6.25;;;;;;;1.32;93.50;101961.16;5012229;28;20422;-62
2024/01/21 10:14:13;;;;;;;8.60;6.25;;;;;;;1.35;93.77;101975.06;5015186;28;20033;-63
2024/01/21 10:16:42;;;;;;;10.15;6.40;;;;;;;1.38;94.70;101971.50;5018022;28;20030;-62
2024/01/21 10:19:10;;;;;;;;;;;;;;;1.44;91.51;101968.78;5015814;28;20033;-62
2024/01/21 10:21:36;;;;;;;8.20;6.15;;;;;;;1.41;94.40;101964.44;5019372;28;19913;-62
2024/01/21 10:24:01;;;;;;;9.30;6.30;;;;;;;1.42;95.01;101955.72;5016285;28;20099;-62
2024/01/21 10:26:26;;;;;;;8.75;6.07;;;;;;;1.43;96.22;101949.59;5016030;28;20018;-62
2024/01/21 10:28:52;;;;;;;8.82;6.13;;;;;;;1.46;96.12;101948.66;5011947;28;20482;-62
2024/01/21 10:31:17;;;;;;;9.80;7.15;;;;;;;1.47;96.52;101953.84;5017503;28;20479;-62
2024/01/21 10:33:44;;;;;;;8.77;6.03;;;;;;;1.48;96.64;101945.13;5021028;28;20021;-62
2024/01/21 10:36:10;;;;;;;9.35;6.55;;;;;;;1.50;96.73;101941.59;5019559;28;20032;-62
2024/01/21 10:38:46;;;;;;;9.45;6.22;;;;;;;1.52;97.30;101935.44;5014048;28;20517;-62
2024/01/21 10:41:14;;;;;;;8.32;6.28;;;;;;;1.53;97.58;101933.66;5014116;28;20044;-63
2024/01/21 10:43:41;;;;;;;8.90;6.67;;;;;;;1.53;97.12;101929.28;5014422;28;20525;-62
2024/01/21 10:46:07;;;;;;;6.95;5.90;;;;;;;1.56;97.14;101917.91;5016477;28;20119;-63
2024/01/21 10:48:34;;;;;;;10.50;7.05;;;;;;;1.59;96.98;101929.16;5018919;28;20025;-63
2024/01/21 10:51:00;;;;;;;11.48;7.47;;;;;;;1.63;96.67;101912.50;5014269;28;20068;-63
2024/01/21 10:53:26;;;;;;;9.60;6.63;;;;;;;1.66;96.56;101911.56;5009211;28;20065;-62
2024/01/21 10:55:53;;;;;;;8.35;6.40;;;;;;;1.70;96.30;101920.22;5015768;28;20051;-63
2024/01/21 10:58:18;;;;;;;7.53;6.35;;;;;;;1.75;96.21;101915.72;5016155;28;20040;-63
2024/01/21 11:00:44;;;;;;;7.75;6.07;;;;;;;1.82;95.53;101917.31;5018896;28;20025;-63
2024/01/21 11:03:23;;;;;;;11.00;7.07;;;;;;;1.85;95.52;101902.41;5018927;28;20032;-63
2024/01/21 11:06:10;;;;;;;11.35;6.53;;;;;;;1.92;94.33;101900.50;5017269;28;20084;-62
2024/01/21 11:08:36;;;;;;;7.88;6.38;;;;;;;2.00;94.16;101901.19;5016015;28;20156;-63
2024/01/21 11:11:14;;;;;;;7.72;6.25;;;;;;;2.13;93.12;101893.88;5009702;28;20049;-63
2024/01/21 11:13:45;;;;;;;10.88;6.38;;;;;;;2.15;93.44;101893.81;5015095;28;20475;-62
2024/01/21 11:16:11;;;;;;;9.23;6.20;;;;;;;2.20;93.48;101899.84;5015852;28;20100;-62
2024/01/21 11:18:37;;;;;;;7.35;6.38;;;;;;;2.32;92.48;101922.25;5018138;28;20030;-63
2024/01/21 11:21:02;;;;;;;10.43;6.85;;;;;;;2.37;92.48;101929.09;5017714;28;20036;-63
2024/01/21 11:23:28;;;;;;;9.32;6.10;;;;;;;2.42;92.26;101936.00;5017626;28;20108;-62